sensor_id;sensor_type;location;lat;lon;timestamp;P1;durP1;ratioP1;P2;durP2;ratioP2
65405;SDS011;52016;51.228;-2.322;2022-09-09T00:07:15;7.75;;;3.03;;
65405;SDS011;52016;51.228;-2.322;2022-09-09T00:11:18;10.02;;;3.22;;
65405;SDS011;52016;51.228;-2.322;2022-09-09T00:15:12;4.25;;;3.55;;
65405;SDS011;52016;51.228;-2.322;2022-09-09T00:23:39;10.30;;;4.43;;
65405;SDS011;52016;51.228;-2.322;2022-09-09T00:27:40;8.68;;;4.05;;
65405;SDS011;52016;51.228;-2.322;2022-09-09T00:31:27;9.48;;;3.85;;
65405;SDS011;52016;51.228;-2.322;2022-09-09T00:35:16;12.07;;;4.00;;
65405;SDS011;52016;51.228;-2.322;2022-09-09T00:47:12;5.57;;;3.63;;
65405;SDS011;52016;51.228;-2.322;2022-09-09T00:51:01;7.90;;;3.55;;
65405;SDS011;52016;51.228;-2.322;2022-09-09T00:59:04;9.18;;;3.90;;
65405;SDS011;52016;51.228;-2.322;2022-09-09T01:07:35;7.13;;;3.55;;
65405;SDS011;52016;51.228;-2.322;2022-09-09T01:11:20;7.10;;;3.03;;
65405;SDS011;52016;51.228;-2.322;2022-09-09T01:15:07;7.03;;;3.13;;
65405;SDS011;52016;51.228;-2.322;2022-09-09T01:18:59;9.05;;;3.20;;
65405;SDS011;52016;51.228;-2.322;2022-09-09T01:26:43;6.03;;;3.05;;
65405;SDS011;52016;51.228;-2.322;2022-09-09T01:30:26;7.32;;;3.28;;
65405;SDS011;52016;51.228;-2.322;2022-09-09T01:34:12;4.47;;;2.58;;
65405;SDS011;52016;51.228;-2.322;2022-09-09T01:37:56;8.98;;;2.80;;
65405;SDS011;52016;51.228;-2.322;2022-09-09T01:41:38;5.80;;;2.58;;
65405;SDS011;52016;51.228;-2.322;2022-09-09T01:45:20;7.88;;;2.78;;
65405;SDS011;52016;51.228;-2.322;2022-09-09T01:49:03;5.72;;;2.33;;
65405;SDS011;52016;51.228;-2.322;2022-09-09T01:52:49;6.30;;;2.10;;
65405;SDS011;52016;51.228;-2.322;2022-09-09T01:56:55;5.05;;;2.22;;
65405;SDS011;52016;51.228;-2.322;2022-09-09T02:01:04;6.95;;;2.20;;
65405;SDS011;52016;51.228;-2.322;2022-09-09T02:04:55;4.30;;;1.80;;
65405;SDS011;52016;51.228;-2.322;2022-09-09T02:08:47;1.83;;;1.67;;
65405;SDS011;52016;51.228;-2.322;2022-09-09T02:12:30;4.72;;;1.90;;
65405;SDS011;52016;51.228;-2.322;2022-09-09T02:16:33;6.43;;;2.10;;
65405;SDS011;52016;51.228;-2.322;2022-09-09T02:20:21;5.03;;;2.08;;
65405;SDS011;52016;51.228;-2.322;2022-09-09T02:24:14;5.38;;;2.20;;
65405;SDS011;52016;51.228;-2.322;2022-09-09T02:27:57;4.82;;;2.38;;
65405;SDS011;52016;51.228;-2.322;2022-09-09T02:31:42;7.55;;;2.28;;
65405;SDS011;52016;51.228;-2.322;2022-09-09T02:35:26;11.90;;;2.42;;
65405;SDS011;52016;51.228;-2.322;2022-09-09T02:39:11;4.82;;;2.22;;
65405;SDS011;52016;51.228;-2.322;2022-09-09T02:42:54;5.40;;;2.22;;
65405;SDS011;52016;51.228;-2.322;2022-09-09T02:46:40;5.25;;;2.38;;
65405;SDS011;52016;51.228;-2.322;2022-09-09T02:58:08;5.43;;;2.20;;
65405;SDS011;52016;51.228;-2.322;2022-09-09T03:01:53;6.45;;;2.33;;
65405;SDS011;52016;51.228;-2.322;2022-09-09T03:05:35;6.05;;;2.80;;
65405;SDS011;52016;51.228;-2.322;2022-09-09T03:09:17;8.50;;;2.60;;
65405;SDS011;52016;51.228;-2.322;2022-09-09T03:12:59;7.32;;;3.13;;
65405;SDS011;52016;51.228;-2.322;2022-09-09T03:16:42;12.68;;;3.50;;
65405;SDS011;52016;51.228;-2.322;2022-09-09T03:20:24;7.82;;;3.33;;
65405;SDS011;52016;51.228;-2.322;2022-09-09T03:24:07;6.97;;;3.20;;
65405;SDS011;52016;51.228;-2.322;2022-09-09T03:27:49;7.38;;;3.25;;
65405;SDS011;52016;51.228;-2.322;2022-09-09T03:31:31;8.52;;;3.28;;
65405;SDS011;52016;51.228;-2.322;2022-09-09T03:35:13;8.13;;;3.03;;
65405;SDS011;52016;51.228;-2.322;2022-09-09T03:38:57;6.57;;;2.70;;
65405;SDS011;52016;51.228;-2.322;2022-09-09T03:42:39;8.63;;;2.70;;
65405;SDS011;52016;51.228;-2.322;2022-09-09T03:46:22;7.32;;;2.83;;
65405;SDS011;52016;51.228;-2.322;2022-09-09T03:50:05;4.38;;;2.40;;
65405;SDS011;52016;51.228;-2.322;2022-09-09T03:53:49;7.32;;;2.38;;
65405;SDS011;52016;51.228;-2.322;2022-09-09T03:57:31;6.28;;;2.55;;
65405;SDS011;52016;51.228;-2.322;2022-09-09T04:01:15;9.68;;;2.38;;
65405;SDS011;52016;51.228;-2.322;2022-09-09T04:04:59;5.32;;;2.15;;
65405;SDS011;52016;51.228;-2.322;2022-09-09T04:08:40;9.18;;;2.50;;
65405;SDS011;52016;51.228;-2.322;2022-09-09T04:12:22;7.57;;;2.58;;
65405;SDS011;52016;51.228;-2.322;2022-09-09T04:16:04;5.03;;;2.25;;
65405;SDS011;52016;51.228;-2.322;2022-09-09T04:19:47;5.88;;;2.40;;
65405;SDS011;52016;51.228;-2.322;2022-09-09T04:23:29;7.85;;;2.30;;
65405;SDS011;52016;51.228;-2.322;2022-09-09T04:27:11;3.63;;;2.03;;
65405;SDS011;52016;51.228;-2.322;2022-09-09T04:30:53;8.43;;;2.13;;
65405;SDS011;52016;51.228;-2.322;2022-09-09T04:34:35;6.60;;;2.28;;
65405;SDS011;52016;51.228;-2.322;2022-09-09T04:38:16;5.25;;;2.55;;
65405;SDS011;52016;51.228;-2.322;2022-09-09T04:41:59;8.57;;;2.38;;
65405;SDS011;52016;51.228;-2.322;2022-09-09T04:45:41;6.95;;;2.03;;
65405;SDS011;52016;51.228;-2.322;2022-09-09T04:49:23;7.18;;;2.45;;
65405;SDS011;52016;51.228;-2.322;2022-09-09T04:53:05;5.68;;;2.35;;
65405;SDS011;52016;51.228;-2.322;2022-09-09T04:56:49;5.93;;;2.30;;
65405;SDS011;52016;51.228;-2.322;2022-09-09T05:00:32;4.93;;;1.90;;
65405;SDS011;52016;51.228;-2.322;2022-09-09T05:04:16;4.75;;;1.65;;
65405;SDS011;52016;51.228;-2.322;2022-09-09T05:08:06;8.00;;;2.10;;
65405;SDS011;52016;51.228;-2.322;2022-09-09T05:11:49;6.38;;;1.65;;
65405;SDS011;52016;51.228;-2.322;2022-09-09T05:15:31;3.80;;;1.52;;
65405;SDS011;52016;51.228;-2.322;2022-09-09T05:19:13;4.43;;;1.40;;
65405;SDS011;52016;51.228;-2.322;2022-09-09T05:22:55;4.97;;;1.45;;
65405;SDS011;52016;51.228;-2.322;2022-09-09T05:26:37;3.67;;;1.25;;
65405;SDS011;52016;51.228;-2.322;2022-09-09T05:30:20;4.18;;;1.30;;
65405;SDS011;52016;51.228;-2.322;2022-09-09T05:34:03;7.82;;;1.30;;
65405;SDS011;52016;51.228;-2.322;2022-09-09T05:37:45;5.13;;;1.40;;
65405;SDS011;52016;51.228;-2.322;2022-09-09T05:41:27;4.47;;;1.50;;
65405;SDS011;52016;51.228;-2.322;2022-09-09T05:45:10;6.50;;;1.25;;
65405;SDS011;52016;51.228;-2.322;2022-09-09T05:48:52;4.78;;;1.33;;
65405;SDS011;52016;51.228;-2.322;2022-09-09T05:52:35;5.75;;;1.58;;
65405;SDS011;52016;51.228;-2.322;2022-09-09T05:56:18;5.85;;;1.40;;
65405;SDS011;52016;51.228;-2.322;2022-09-09T06:00:05;4.80;;;1.77;;
65405;SDS011;52016;51.228;-2.322;2022-09-09T06:03:47;6.18;;;1.48;;
65405;SDS011;52016;51.228;-2.322;2022-09-09T06:07:30;6.30;;;1.48;;
65405;SDS011;52016;51.228;-2.322;2022-09-09T06:11:13;7.45;;;1.50;;
65405;SDS011;52016;51.228;-2.322;2022-09-09T06:14:57;10.70;;;1.90;;
65405;SDS011;52016;51.228;-2.322;2022-09-09T06:18:39;9.65;;;1.77;;
65405;SDS011;52016;51.228;-2.322;2022-09-09T06:22:22;16.50;;;1.77;;
65405;SDS011;52016;51.228;-2.322;2022-09-09T06:26:09;11.60;;;2.05;;
65405;SDS011;52016;51.228;-2.322;2022-09-09T06:30:11;6.60;;;2.10;;
65405;SDS011;52016;51.228;-2.322;2022-09-09T06:33:53;8.02;;;2.17;;
65405;SDS011;52016;51.228;-2.322;2022-09-09T06:37:36;11.20;;;1.52;;
65405;SDS011;52016;51.228;-2.322;2022-09-09T06:41:18;13.90;;;1.90;;
65405;SDS011;52016;51.228;-2.322;2022-09-09T06:45:01;15.88;;;2.65;;
65405;SDS011;52016;51.228;-2.322;2022-09-09T06:48:44;9.70;;;2.10;;
65405;SDS011;52016;51.228;-2.322;2022-09-09T06:52:26;10.30;;;2.20;;
65405;SDS011;52016;51.228;-2.322;2022-09-09T07:00:28;10.15;;;2.35;;
65405;SDS011;52016;51.228;-2.322;2022-09-09T07:04:11;21.60;;;2.35;;
65405;SDS011;52016;51.228;-2.322;2022-09-09T07:07:54;15.20;;;2.40;;
65405;SDS011;52016;51.228;-2.322;2022-09-09T07:11:40;12.18;;;2.42;;
65405;SDS011;52016;51.228;-2.322;2022-09-09T07:15:23;8.73;;;1.93;;
65405;SDS011;52016;51.228;-2.322;2022-09-09T07:19:06;6.97;;;1.95;;
65405;SDS011;52016;51.228;-2.322;2022-09-09T07:22:47;6.78;;;1.92;;
65405;SDS011;52016;51.228;-2.322;2022-09-09T07:26:29;3.75;;;1.73;;
65405;SDS011;52016;51.228;-2.322;2022-09-09T07:30:12;7.18;;;1.98;;
65405;SDS011;52016;51.228;-2.322;2022-09-09T07:34:03;6.63;;;1.95;;
65405;SDS011;52016;51.228;-2.322;2022-09-09T07:37:45;8.25;;;2.20;;
65405;SDS011;52016;51.228;-2.322;2022-09-09T07:41:33;9.25;;;2.85;;
65405;SDS011;52016;51.228;-2.322;2022-09-09T07:45:17;9.00;;;2.67;;
65405;SDS011;52016;51.228;-2.322;2022-09-09T07:48:58;5.30;;;1.70;;
65405;SDS011;52016;51.228;-2.322;2022-09-09T07:52:42;7.57;;;1.67;;
65405;SDS011;52016;51.228;-2.322;2022-09-09T07:56:24;6.05;;;1.90;;
65405;SDS011;52016;51.228;-2.322;2022-09-09T08:00:07;4.85;;;1.60;;
65405;SDS011;52016;51.228;-2.322;2022-09-09T08:04:02;8.55;;;1.50;;
65405;SDS011;52016;51.228;-2.322;2022-09-09T08:07:46;3.13;;;1.10;;
65405;SDS011;52016;51.228;-2.322;2022-09-09T08:11:29;3.88;;;1.10;;
65405;SDS011;52016;51.228;-2.322;2022-09-09T08:15:18;3.47;;;1.38;;
65405;SDS011;52016;51.228;-2.322;2022-09-09T08:19:00;1.98;;;1.17;;
65405;SDS011;52016;51.228;-2.322;2022-09-09T08:22:42;2.03;;;1.30;;
65405;SDS011;52016;51.228;-2.322;2022-09-09T08:26:29;7.88;;;1.10;;
65405;SDS011;52016;51.228;-2.322;2022-09-09T08:30:14;6.15;;;1.20;;
65405;SDS011;52016;51.228;-2.322;2022-09-09T08:33:57;4.90;;;1.10;;
65405;SDS011;52016;51.228;-2.322;2022-09-09T08:37:40;8.75;;;1.42;;
65405;SDS011;52016;51.228;-2.322;2022-09-09T08:56:49;15.57;;;1.63;;
65405;SDS011;52016;51.228;-2.322;2022-09-09T09:00:35;12.98;;;1.50;;
65405;SDS011;52016;51.228;-2.322;2022-09-09T09:12:54;8.18;;;0.98;;
65405;SDS011;52016;51.228;-2.322;2022-09-09T09:16:44;8.07;;;1.50;;
65405;SDS011;52016;51.228;-2.322;2022-09-09T09:20:44;4.18;;;1.00;;
65405;SDS011;52016;51.228;-2.322;2022-09-09T09:28:53;1.00;;;0.88;;
65405;SDS011;52016;51.228;-2.322;2022-09-09T09:32:37;7.57;;;1.02;;
65405;SDS011;52016;51.228;-2.322;2022-09-09T09:36:37;2.75;;;0.85;;
65405;SDS011;52016;51.228;-2.322;2022-09-09T09:40:22;1.25;;;0.82;;
65405;SDS011;52016;51.228;-2.322;2022-09-09T09:44:05;0.90;;;0.70;;
65405;SDS011;52016;51.228;-2.322;2022-09-09T09:48:04;0.80;;;0.80;;
65405;SDS011;52016;51.228;-2.322;2022-09-09T09:51:54;0.98;;;0.77;;
65405;SDS011;52016;51.228;-2.322;2022-09-09T09:55:46;1.58;;;0.60;;
65405;SDS011;52016;51.228;-2.322;2022-09-09T09:59:35;0.75;;;0.65;;
65405;SDS011;52016;51.228;-2.322;2022-09-09T10:03:25;1.42;;;0.98;;
65405;SDS011;52016;51.228;-2.322;2022-09-09T10:07:17;0.85;;;0.70;;
65405;SDS011;52016;51.228;-2.322;2022-09-09T10:19:15;4.43;;;0.80;;
65405;SDS011;52016;51.228;-2.322;2022-09-09T10:23:06;0.70;;;0.70;;
65405;SDS011;52016;51.228;-2.322;2022-09-09T10:27:33;0.83;;;0.83;;
65405;SDS011;52016;51.228;-2.322;2022-09-09T10:31:49;1.45;;;1.00;;
65405;SDS011;52016;51.228;-2.322;2022-09-09T10:35:33;0.60;;;0.60;;
65405;SDS011;52016;51.228;-2.322;2022-09-09T10:47:34;1.25;;;0.80;;
65405;SDS011;52016;51.228;-2.322;2022-09-09T10:55:43;1.42;;;0.77;;
65405;SDS011;52016;51.228;-2.322;2022-09-09T10:59:33;0.73;;;0.73;;
65405;SDS011;52016;51.228;-2.322;2022-09-09T11:03:30;1.85;;;0.82;;
65405;SDS011;52016;51.228;-2.322;2022-09-09T11:07:16;1.00;;;0.70;;
65405;SDS011;52016;51.228;-2.322;2022-09-09T11:14:59;1.60;;;0.80;;
65405;SDS011;52016;51.228;-2.322;2022-09-09T11:18:47;3.70;;;1.10;;
65405;SDS011;52016;51.228;-2.322;2022-09-09T11:22:36;0.80;;;0.65;;
65405;SDS011;52016;51.228;-2.322;2022-09-09T11:26:29;2.15;;;0.90;;
65405;SDS011;52016;51.228;-2.322;2022-09-09T11:30:27;1.27;;;0.75;;
65405;SDS011;52016;51.228;-2.322;2022-09-09T11:38:52;3.03;;;0.90;;
65405;SDS011;52016;51.228;-2.322;2022-09-09T11:42:42;1.13;;;1.00;;
65405;SDS011;52016;51.228;-2.322;2022-09-09T11:46:31;1.95;;;0.93;;
65405;SDS011;52016;51.228;-2.322;2022-09-09T11:54:00;1.85;;;1.10;;
65405;SDS011;52016;51.228;-2.322;2022-09-09T11:57:44;1.25;;;0.93;;
65405;SDS011;52016;51.228;-2.322;2022-09-09T12:05:14;6.72;;;1.83;;
65405;SDS011;52016;51.228;-2.322;2022-09-09T12:08:58;3.35;;;1.60;;
65405;SDS011;52016;51.228;-2.322;2022-09-09T12:12:52;3.72;;;1.33;;
65405;SDS011;52016;51.228;-2.322;2022-09-09T12:16:36;2.75;;;1.60;;
65405;SDS011;52016;51.228;-2.322;2022-09-09T12:24:07;5.78;;;1.30;;
65405;SDS011;52016;51.228;-2.322;2022-09-09T12:36:03;5.60;;;1.33;;
65405;SDS011;52016;51.228;-2.322;2022-09-09T12:39:50;2.60;;;1.20;;
65405;SDS011;52016;51.228;-2.322;2022-09-09T12:43:41;3.30;;;1.10;;
65405;SDS011;52016;51.228;-2.322;2022-09-09T12:47:24;3.47;;;1.13;;
65405;SDS011;52016;51.228;-2.322;2022-09-09T12:51:27;3.17;;;1.38;;
65405;SDS011;52016;51.228;-2.322;2022-09-09T12:55:18;3.88;;;0.98;;
65405;SDS011;52016;51.228;-2.322;2022-09-09T12:59:17;2.90;;;1.05;;
65405;SDS011;52016;51.228;-2.322;2022-09-09T13:03:16;4.13;;;1.20;;
65405;SDS011;52016;51.228;-2.322;2022-09-09T13:07:06;5.03;;;1.30;;
65405;SDS011;52016;51.228;-2.322;2022-09-09T13:14:44;2.75;;;1.23;;
65405;SDS011;52016;51.228;-2.322;2022-09-09T13:18:30;2.55;;;1.35;;
65405;SDS011;52016;51.228;-2.322;2022-09-09T13:26:26;5.53;;;1.90;;
65405;SDS011;52016;51.228;-2.322;2022-09-09T13:30:19;10.23;;;2.10;;
65405;SDS011;52016;51.228;-2.322;2022-09-09T13:34:12;6.28;;;2.28;;
65405;SDS011;52016;51.228;-2.322;2022-09-09T13:38:08;4.50;;;1.83;;
65405;SDS011;52016;51.228;-2.322;2022-09-09T13:41:53;3.45;;;1.70;;
65405;SDS011;52016;51.228;-2.322;2022-09-09T13:45:35;4.82;;;1.80;;
65405;SDS011;52016;51.228;-2.322;2022-09-09T13:49:21;5.22;;;1.60;;
65405;SDS011;52016;51.228;-2.322;2022-09-09T13:53:04;2.00;;;1.25;;
65405;SDS011;52016;51.228;-2.322;2022-09-09T13:56:46;2.70;;;1.40;;
65405;SDS011;52016;51.228;-2.322;2022-09-09T14:00:32;7.70;;;1.75;;
65405;SDS011;52016;51.228;-2.322;2022-09-09T14:04:15;3.88;;;1.48;;
65405;SDS011;52016;51.228;-2.322;2022-09-09T14:07:57;5.22;;;2.08;;
65405;SDS011;52016;51.228;-2.322;2022-09-09T14:11:41;8.38;;;2.00;;
65405;SDS011;52016;51.228;-2.322;2022-09-09T14:15:23;4.95;;;1.88;;
65405;SDS011;52016;51.228;-2.322;2022-09-09T14:19:05;4.25;;;2.08;;
65405;SDS011;52016;51.228;-2.322;2022-09-09T14:22:48;6.00;;;1.70;;
65405;SDS011;52016;51.228;-2.322;2022-09-09T14:26:30;9.68;;;2.25;;
65405;SDS011;52016;51.228;-2.322;2022-09-09T14:30:12;7.88;;;1.80;;
65405;SDS011;52016;51.228;-2.322;2022-09-09T14:33:54;6.65;;;1.60;;
65405;SDS011;52016;51.228;-2.322;2022-09-09T14:37:36;5.28;;;1.60;;
65405;SDS011;52016;51.228;-2.322;2022-09-09T14:41:18;8.52;;;1.77;;
65405;SDS011;52016;51.228;-2.322;2022-09-09T14:45:01;5.90;;;1.40;;
65405;SDS011;52016;51.228;-2.322;2022-09-09T14:48:43;4.38;;;1.45;;
65405;SDS011;52016;51.228;-2.322;2022-09-09T14:52:26;4.60;;;1.33;;
65405;SDS011;52016;51.228;-2.322;2022-09-09T14:56:09;3.33;;;1.13;;
65405;SDS011;52016;51.228;-2.322;2022-09-09T14:59:52;1.70;;;0.93;;
65405;SDS011;52016;51.228;-2.322;2022-09-09T15:03:34;10.93;;;1.20;;
65405;SDS011;52016;51.228;-2.322;2022-09-09T15:07:16;6.30;;;1.25;;
65405;SDS011;52016;51.228;-2.322;2022-09-09T15:11:01;9.38;;;1.40;;
65405;SDS011;52016;51.228;-2.322;2022-09-09T15:14:43;4.13;;;1.25;;
65405;SDS011;52016;51.228;-2.322;2022-09-09T15:18:25;6.93;;;1.20;;
65405;SDS011;52016;51.228;-2.322;2022-09-09T15:22:08;3.85;;;1.35;;
65405;SDS011;52016;51.228;-2.322;2022-09-09T15:25:51;3.30;;;1.20;;
65405;SDS011;52016;51.228;-2.322;2022-09-09T15:29:37;2.75;;;1.27;;
65405;SDS011;52016;51.228;-2.322;2022-09-09T15:33:20;5.53;;;1.58;;
65405;SDS011;52016;51.228;-2.322;2022-09-09T15:37:03;2.47;;;1.30;;
65405;SDS011;52016;51.228;-2.322;2022-09-09T15:40:45;12.35;;;1.52;;
65405;SDS011;52016;51.228;-2.322;2022-09-09T15:44:41;12.23;;;1.85;;
65405;SDS011;52016;51.228;-2.322;2022-09-09T15:48:29;9.75;;;2.03;;
65405;SDS011;52016;51.228;-2.322;2022-09-09T15:52:13;8.90;;;1.92;;
65405;SDS011;52016;51.228;-2.322;2022-09-09T15:55:55;5.28;;;1.60;;
65405;SDS011;52016;51.228;-2.322;2022-09-09T15:59:37;7.90;;;1.60;;
65405;SDS011;52016;51.228;-2.322;2022-09-09T16:03:18;9.98;;;1.70;;
65405;SDS011;52016;51.228;-2.322;2022-09-09T16:07:04;4.80;;;1.80;;
65405;SDS011;52016;51.228;-2.322;2022-09-09T16:10:46;7.82;;;1.67;;
65405;SDS011;52016;51.228;-2.322;2022-09-09T16:14:28;5.00;;;1.58;;
65405;SDS011;52016;51.228;-2.322;2022-09-09T16:18:15;14.23;;;1.93;;
65405;SDS011;52016;51.228;-2.322;2022-09-09T16:21:57;8.07;;;1.85;;
65405;SDS011;52016;51.228;-2.322;2022-09-09T16:25:39;9.30;;;2.20;;
65405;SDS011;52016;51.228;-2.322;2022-09-09T16:29:21;7.95;;;1.80;;
65405;SDS011;52016;51.228;-2.322;2022-09-09T16:33:03;5.43;;;1.80;;
65405;SDS011;52016;51.228;-2.322;2022-09-09T16:36:45;9.30;;;1.90;;
65405;SDS011;52016;51.228;-2.322;2022-09-09T16:40:29;6.72;;;1.40;;
65405;SDS011;52016;51.228;-2.322;2022-09-09T16:44:11;9.32;;;1.95;;
65405;SDS011;52016;51.228;-2.322;2022-09-09T16:47:55;7.97;;;1.40;;
65405;SDS011;52016;51.228;-2.322;2022-09-09T16:51:38;7.40;;;2.78;;
65405;SDS011;52016;51.228;-2.322;2022-09-09T16:55:21;4.95;;;1.75;;
65405;SDS011;52016;51.228;-2.322;2022-09-09T16:59:04;8.27;;;1.65;;
65405;SDS011;52016;51.228;-2.322;2022-09-09T17:02:47;7.53;;;2.20;;
65405;SDS011;52016;51.228;-2.322;2022-09-09T17:06:30;8.93;;;1.85;;
65405;SDS011;52016;51.228;-2.322;2022-09-09T17:10:14;7.18;;;2.10;;
65405;SDS011;52016;51.228;-2.322;2022-09-09T17:13:56;6.95;;;1.80;;
65405;SDS011;52016;51.228;-2.322;2022-09-09T17:17:39;10.45;;;1.90;;
65405;SDS011;52016;51.228;-2.322;2022-09-09T17:21:23;7.15;;;1.90;;
65405;SDS011;52016;51.228;-2.322;2022-09-09T17:25:06;5.90;;;1.75;;
65405;SDS011;52016;51.228;-2.322;2022-09-09T17:28:49;11.23;;;1.70;;
65405;SDS011;52016;51.228;-2.322;2022-09-09T17:32:30;9.82;;;1.95;;
65405;SDS011;52016;51.228;-2.322;2022-09-09T17:36:16;12.27;;;2.05;;
65405;SDS011;52016;51.228;-2.322;2022-09-09T17:40:00;10.80;;;1.80;;
65405;SDS011;52016;51.228;-2.322;2022-09-09T17:43:42;4.97;;;1.70;;
65405;SDS011;52016;51.228;-2.322;2022-09-09T17:47:24;8.38;;;2.50;;
65405;SDS011;52016;51.228;-2.322;2022-09-09T17:51:07;9.60;;;1.70;;
65405;SDS011;52016;51.228;-2.322;2022-09-09T17:54:50;7.68;;;1.88;;
65405;SDS011;52016;51.228;-2.322;2022-09-09T17:58:32;7.22;;;1.70;;
65405;SDS011;52016;51.228;-2.322;2022-09-09T18:02:14;18.38;;;2.30;;
65405;SDS011;52016;51.228;-2.322;2022-09-09T18:05:59;11.65;;;2.40;;
65405;SDS011;52016;51.228;-2.322;2022-09-09T18:09:42;11.27;;;1.70;;
65405;SDS011;52016;51.228;-2.322;2022-09-09T18:13:24;7.35;;;1.55;;
65405;SDS011;52016;51.228;-2.322;2022-09-09T18:17:06;13.05;;;2.10;;
65405;SDS011;52016;51.228;-2.322;2022-09-09T18:24:46;6.50;;;1.52;;
65405;SDS011;52016;51.228;-2.322;2022-09-09T18:28:28;13.55;;;2.20;;
65405;SDS011;52016;51.228;-2.322;2022-09-09T18:32:10;10.68;;;1.77;;
65405;SDS011;52016;51.228;-2.322;2022-09-09T18:35:52;6.07;;;1.50;;
65405;SDS011;52016;51.228;-2.322;2022-09-09T18:39:36;7.88;;;1.85;;
65405;SDS011;52016;51.228;-2.322;2022-09-09T18:43:18;13.15;;;1.80;;
65405;SDS011;52016;51.228;-2.322;2022-09-09T18:47:00;5.90;;;1.70;;
65405;SDS011;52016;51.228;-2.322;2022-09-09T18:50:44;5.55;;;1.60;;
65405;SDS011;52016;51.228;-2.322;2022-09-09T18:54:27;6.22;;;1.75;;
65405;SDS011;52016;51.228;-2.322;2022-09-09T18:58:14;8.52;;;1.63;;
65405;SDS011;52016;51.228;-2.322;2022-09-09T19:01:56;5.38;;;1.58;;
65405;SDS011;52016;51.228;-2.322;2022-09-09T19:05:38;5.40;;;1.70;;
65405;SDS011;52016;51.228;-2.322;2022-09-09T19:09:20;4.28;;;1.42;;
65405;SDS011;52016;51.228;-2.322;2022-09-09T19:13:02;11.55;;;1.92;;
65405;SDS011;52016;51.228;-2.322;2022-09-09T19:16:45;7.07;;;1.75;;
65405;SDS011;52016;51.228;-2.322;2022-09-09T19:20:28;6.07;;;1.65;;
65405;SDS011;52016;51.228;-2.322;2022-09-09T19:27:52;8.38;;;1.75;;
65405;SDS011;52016;51.228;-2.322;2022-09-09T19:31:34;14.60;;;2.00;;
65405;SDS011;52016;51.228;-2.322;2022-09-09T19:35:16;13.02;;;1.92;;
65405;SDS011;52016;51.228;-2.322;2022-09-09T19:39:00;9.82;;;2.20;;
65405;SDS011;52016;51.228;-2.322;2022-09-09T19:42:43;5.13;;;2.03;;
65405;SDS011;52016;51.228;-2.322;2022-09-09T19:46:25;7.70;;;2.08;;
65405;SDS011;52016;51.228;-2.322;2022-09-09T19:50:11;4.63;;;1.80;;
65405;SDS011;52016;51.228;-2.322;2022-09-09T19:53:53;6.35;;;1.80;;
65405;SDS011;52016;51.228;-2.322;2022-09-09T19:57:37;3.05;;;1.60;;
65405;SDS011;52016;51.228;-2.322;2022-09-09T20:01:21;5.80;;;1.70;;
65405;SDS011;52016;51.228;-2.322;2022-09-09T20:05:04;3.03;;;1.58;;
65405;SDS011;52016;51.228;-2.322;2022-09-09T20:08:47;5.95;;;1.67;;
65405;SDS011;52016;51.228;-2.322;2022-09-09T20:12:29;5.07;;;2.15;;
65405;SDS011;52016;51.228;-2.322;2022-09-09T20:16:12;3.92;;;1.65;;
65405;SDS011;52016;51.228;-2.322;2022-09-09T20:19:55;4.93;;;1.45;;
65405;SDS011;52016;51.228;-2.322;2022-09-09T20:23:37;1.88;;;1.38;;
65405;SDS011;52016;51.228;-2.322;2022-09-09T20:27:19;2.40;;;1.60;;
65405;SDS011;52016;51.228;-2.322;2022-09-09T20:31:12;8.45;;;1.90;;
65405;SDS011;52016;51.228;-2.322;2022-09-09T20:34:55;2.67;;;1.40;;
65405;SDS011;52016;51.228;-2.322;2022-09-09T20:38:45;6.88;;;1.88;;
65405;SDS011;52016;51.228;-2.322;2022-09-09T20:42:27;3.67;;;1.70;;
65405;SDS011;52016;51.228;-2.322;2022-09-09T20:46:09;2.40;;;1.40;;
65405;SDS011;52016;51.228;-2.322;2022-09-09T20:49:51;3.28;;;1.90;;
65405;SDS011;52016;51.228;-2.322;2022-09-09T20:53:33;4.07;;;1.65;;
65405;SDS011;52016;51.228;-2.322;2022-09-09T20:57:15;5.05;;;1.90;;
65405;SDS011;52016;51.228;-2.322;2022-09-09T21:01:02;3.13;;;2.40;;
65405;SDS011;52016;51.228;-2.322;2022-09-09T21:04:45;3.90;;;1.80;;
65405;SDS011;52016;51.228;-2.322;2022-09-09T21:08:28;6.32;;;1.90;;
65405;SDS011;52016;51.228;-2.322;2022-09-09T21:12:10;3.22;;;1.90;;
65405;SDS011;52016;51.228;-2.322;2022-09-09T21:15:52;4.18;;;2.00;;
65405;SDS011;52016;51.228;-2.322;2022-09-09T21:19:34;6.65;;;2.33;;
65405;SDS011;52016;51.228;-2.322;2022-09-09T21:23:16;4.85;;;2.38;;
65405;SDS011;52016;51.228;-2.322;2022-09-09T21:26:58;7.00;;;2.50;;
65405;SDS011;52016;51.228;-2.322;2022-09-09T21:30:40;6.25;;;2.65;;
65405;SDS011;52016;51.228;-2.322;2022-09-09T21:34:26;6.50;;;2.72;;
65405;SDS011;52016;51.228;-2.322;2022-09-09T21:38:30;6.20;;;2.90;;
65405;SDS011;52016;51.228;-2.322;2022-09-09T21:42:11;7.65;;;2.88;;
65405;SDS011;52016;51.228;-2.322;2022-09-09T21:45:54;10.65;;;2.97;;
65405;SDS011;52016;51.228;-2.322;2022-09-09T21:49:36;6.35;;;3.00;;
65405;SDS011;52016;51.228;-2.322;2022-09-09T21:53:18;7.32;;;3.08;;
65405;SDS011;52016;51.228;-2.322;2022-09-09T21:57:00;6.95;;;3.33;;
65405;SDS011;52016;51.228;-2.322;2022-09-09T22:00:43;5.65;;;3.08;;
65405;SDS011;52016;51.228;-2.322;2022-09-09T22:04:26;6.75;;;2.83;;
65405;SDS011;52016;51.228;-2.322;2022-09-09T22:08:09;5.97;;;2.90;;
65405;SDS011;52016;51.228;-2.322;2022-09-09T22:11:52;6.97;;;3.10;;
65405;SDS011;52016;51.228;-2.322;2022-09-09T22:15:34;7.55;;;3.17;;
65405;SDS011;52016;51.228;-2.322;2022-09-09T22:19:16;5.90;;;3.50;;
65405;SDS011;52016;51.228;-2.322;2022-09-09T22:22:58;6.97;;;3.40;;
65405;SDS011;52016;51.228;-2.322;2022-09-09T22:26:41;9.70;;;3.80;;
65405;SDS011;52016;51.228;-2.322;2022-09-09T22:30:23;10.23;;;3.70;;
65405;SDS011;52016;51.228;-2.322;2022-09-09T22:34:05;7.63;;;3.70;;
65405;SDS011;52016;51.228;-2.322;2022-09-09T22:37:47;9.07;;;3.80;;
65405;SDS011;52016;51.228;-2.322;2022-09-09T22:41:29;6.65;;;3.33;;
65405;SDS011;52016;51.228;-2.322;2022-09-09T22:45:12;9.85;;;3.72;;
65405;SDS011;52016;51.228;-2.322;2022-09-09T22:48:54;5.43;;;3.40;;
65405;SDS011;52016;51.228;-2.322;2022-09-09T22:52:35;9.93;;;4.40;;
65405;SDS011;52016;51.228;-2.322;2022-09-09T22:56:17;6.57;;;3.50;;
65405;SDS011;52016;51.228;-2.322;2022-09-09T23:00:00;7.97;;;3.80;;
65405;SDS011;52016;51.228;-2.322;2022-09-09T23:03:42;10.93;;;3.83;;
65405;SDS011;52016;51.228;-2.322;2022-09-09T23:07:26;8.95;;;4.43;;
65405;SDS011;52016;51.228;-2.322;2022-09-09T23:11:09;9.25;;;4.20;;
65405;SDS011;52016;51.228;-2.322;2022-09-09T23:14:52;9.07;;;4.47;;
65405;SDS011;52016;51.228;-2.322;2022-09-09T23:18:36;8.63;;;4.30;;
65405;SDS011;52016;51.228;-2.322;2022-09-09T23:22:20;9.80;;;4.47;;
65405;SDS011;52016;51.228;-2.322;2022-09-09T23:26:03;8.85;;;4.53;;
65405;SDS011;52016;51.228;-2.322;2022-09-09T23:29:47;10.98;;;4.38;;
65405;SDS011;52016;51.228;-2.322;2022-09-09T23:33:29;9.77;;;4.43;;
65405;SDS011;52016;51.228;-2.322;2022-09-09T23:37:11;8.85;;;4.43;;
65405;SDS011;52016;51.228;-2.322;2022-09-09T23:40:54;10.30;;;4.32;;
65405;SDS011;52016;51.228;-2.322;2022-09-09T23:44:36;8.73;;;4.40;;
65405;SDS011;52016;51.228;-2.322;2022-09-09T23:48:19;8.82;;;5.38;;
65405;SDS011;52016;51.228;-2.322;2022-09-09T23:52:01;13.20;;;4.82;;
65405;SDS011;52016;51.228;-2.322;2022-09-09T23:55:45;8.75;;;5.38;;
65405;SDS011;52016;51.228;-2.322;2022-09-09T23:59:27;6.07;;;4.70;;
